Atterbury, IL

11:17 AM CDT on August 30, 2014 (GMT -0500)
North Petersburg | Change Station
CLOSE
Current Station
Personal Weather Station
Location: Petersburg, IL
Elevation: 597 ft
Nearby Weather Stations

Elev 597 ft 40.03 °N, 89.85 °W | Updated 1 second ago

Clear
Clear
79.2 °F
Feels Like 83 °F
N
8.0
Wind Variable Wind from WSW
Gusts 14.0 mph

Today
High -- | Low -- °F
--% Chance of Precip.
Yesterday
High -- | Low -- °F
Precip. -- in
6:25 AM 7:33 PM
Waxing Crescent, 23% visible
Pressure 29.92 in
Visibility 10.0 miles
Clouds Scattered Clouds 2500 ft
Heat Index 83 °F
Dew Point 73 °F
Humidity 81%
Rainfall 0.00 in
Snow Depth Not available.
UV 6 out of 12
Pollen 4.60 out of 12
Ozone Good
PM2.5 Good
Flu Activity Not available.
METAR KSPI 301552Z 22008KT 10SM SCT025 27/21 A2994 RMK AO2 SLP132 T02720211

More Conditions Fewer Conditions

Pressure 29.92 in
Visibility 10.0 miles
Clouds Scattered Clouds 2500 ft
Heat Index 83 °F
Dew Point 73 °F
Humidity 81%
Rainfall 0.00 in
Snow Depth Not available.
UV 6 out of 12
Pollen 4.60 out of 12
Ozone Good
PM2.5 Good
Flu Activity Not available.
METAR KSPI 301552Z 22008KT 10SM SCT025 27/21 A2994 RMK AO2 SLP132 T02720211

More Conditions Fewer Conditions

10-Day Weather Forecast

Almanac

Astronomy

Aug. 30, 2014 Rise Set
Actual Time 6:25 AM CDT 7:33 PM CDT
Civil Twilight 5:57 AM CDT 8:01 PM CDT
Nautical Twilight 5:24 AM CDT 8:35 PM CDT
Astronomical Twilight 4:49 AM CDT 9:09 PM CDT
Moon 11:12 AM CDT 10:08 PM CDT
Length of Visible Light 14h 04m
Length of Day
13h 08m
Tomorrow will be 2m 30s shorter.
Waxing Crescent, 23% of the Moon is Illuminated
Today
Waxing Crescent
Sep 2
First Quarter
Sep 8
Full
Sep 15
Last Quarter
Sep 24
New

Today's Extremes

State Highs State Lows

Community

WunderPhotos

Upload Photos

1,748,556 photos uploaded!

WunderBlogs® & News

Nearby

Air Quality

  Air Quality AQ Index Pollutant
Yesterday Moderate
PM2.5
Yesterday Good
OZONE
Current Good
PM2.5
Current Good
OZONE
Saturday Good
PM2.5
Sunday Good
PM2.5
Monday Moderate
PM2.5
Tuesday Good
PM2.5

Snow Depth

Station Depth Elevation
No new snow has been reported.

Earthquake Activity

City Distance Mag. Time & Date
No recent earthquake activity has been reported nearby.
Minimum magnitude displayed is 2.5.

Coastal Water Temperatures

Place Temperature
No Stations Reporting

Nearby Weather Stations